createdAt,value
2018-07-31T00:01:09.080Z,100644.00
2018-07-31T00:03:38.401Z,100638.00
2018-07-31T00:06:10.823Z,100646.00
2018-07-31T00:08:40.552Z,100644.00
2018-07-31T00:11:09.812Z,100642.00
2018-07-31T00:13:39.096Z,100640.00
2018-07-31T00:16:08.445Z,100646.00
2018-07-31T00:18:37.790Z,100644.00
2018-07-31T00:21:07.176Z,100645.00
2018-07-31T00:23:36.506Z,100651.00
2018-07-31T00:26:06.578Z,100653.00
2018-07-31T00:28:36.011Z,100655.00
2018-07-31T00:31:05.452Z,100661.00
2018-07-31T00:33:35.099Z,100666.00
2018-07-31T00:36:04.788Z,100653.00
2018-07-31T00:38:34.147Z,100654.00
2018-07-31T00:41:03.440Z,100652.00
2018-07-31T00:43:32.762Z,100654.00
2018-07-31T00:46:02.073Z,100653.00
2018-07-31T00:48:31.362Z,100647.00
2018-07-31T00:51:00.642Z,100654.00
2018-07-31T00:53:29.893Z,100658.00
2018-07-31T00:55:59.197Z,100652.00
2018-07-31T00:58:28.519Z,100648.00
2018-07-31T01:00:57.747Z,100652.00
2018-07-31T01:03:27.049Z,100650.00
2018-07-31T01:05:56.722Z,100640.00
2018-07-31T01:08:25.964Z,100655.00
2018-07-31T01:10:55.270Z,100647.00
2018-07-31T01:13:24.916Z,100646.00
2018-07-31T01:15:54.180Z,100641.00
2018-07-31T01:18:23.426Z,100641.00
2018-07-31T01:20:53.080Z,100637.00
2018-07-31T01:23:22.431Z,100645.00
2018-07-31T01:25:52.192Z,100642.00
2018-07-31T01:28:21.461Z,100642.00
2018-07-31T01:30:50.747Z,100648.00
2018-07-31T01:33:19.991Z,100646.00
2018-07-31T01:35:49.312Z,100642.00
2018-07-31T01:38:18.652Z,100641.00
2018-07-31T01:40:47.870Z,100647.00
2018-07-31T01:43:17.148Z,100645.00
2018-07-31T01:45:46.390Z,100644.00
2018-07-31T01:48:15.787Z,100640.00
2018-07-31T01:50:45.034Z,100634.00
2018-07-31T01:53:14.312Z,100636.00
2018-07-31T01:55:43.609Z,100639.00
2018-07-31T01:58:12.943Z,100634.00
2018-07-31T02:00:42.203Z,100647.00
2018-07-31T02:03:11.482Z,100639.00
2018-07-31T02:05:40.786Z,100647.00
2018-07-31T02:08:10.136Z,100640.00
2018-07-31T02:10:39.775Z,100636.00
2018-07-31T02:13:09.507Z,100638.00
2018-07-31T02:15:38.774Z,100638.00
2018-07-31T02:18:08.086Z,100634.00
2018-07-31T02:20:37.407Z,100638.00
2018-07-31T02:23:06.696Z,100638.00
2018-07-31T02:25:36.386Z,100628.00
2018-07-31T02:28:05.776Z,100637.00
2018-07-31T02:30:34.950Z,100632.00
2018-07-31T02:33:04.267Z,100638.00
2018-07-31T02:35:33.607Z,100639.00
2018-07-31T02:38:02.854Z,100636.00
2018-07-31T02:40:32.166Z,100632.00
2018-07-31T02:43:01.471Z,100626.00
2018-07-31T02:45:30.821Z,100633.00
2018-07-31T02:48:00.075Z,100633.00
2018-07-31T02:50:29.371Z,100632.00
2018-07-31T02:52:58.670Z,100634.00
2018-07-31T02:55:28.022Z,100635.00
2018-07-31T02:57:57.294Z,100639.00
2018-07-31T03:00:26.526Z,100645.00
2018-07-31T03:02:55.815Z,100640.00
2018-07-31T03:05:25.166Z,100646.00
2018-07-31T03:07:54.513Z,100646.00
2018-07-31T03:10:24.107Z,100643.00
2018-07-31T03:12:53.374Z,100645.00
2018-07-31T03:15:22.626Z,100643.00
2018-07-31T03:17:51.913Z,100641.00
2018-07-31T03:20:21.222Z,100633.00
2018-07-31T03:22:50.520Z,100637.00
2018-07-31T03:25:19.893Z,100635.00
2018-07-31T03:27:49.183Z,100626.00
2018-07-31T03:30:18.575Z,100634.00
2018-07-31T03:32:47.804Z,100630.00
2018-07-31T03:35:17.035Z,100639.00
2018-07-31T03:37:46.743Z,100638.00
2018-07-31T03:40:16.002Z,100646.00
2018-07-31T03:42:45.192Z,100647.00
2018-07-31T03:45:14.571Z,100653.00
2018-07-31T03:47:43.888Z,100656.00
2018-07-31T03:50:13.246Z,100647.00
2018-07-31T03:52:42.535Z,100644.00
2018-07-31T03:55:11.817Z,100651.00
2018-07-31T03:58:05.727Z,100654.00
2018-07-31T04:00:34.943Z,100659.00
2018-07-31T04:03:04.406Z,100661.00
2018-07-31T04:05:33.672Z,100656.00
2018-07-31T04:08:02.947Z,100658.00
2018-07-31T04:10:32.240Z,100665.00
2018-07-31T04:13:01.548Z,100669.00
2018-07-31T04:15:30.899Z,100662.00
2018-07-31T04:18:00.174Z,100670.00
2018-07-31T04:20:29.431Z,100665.00
2018-07-31T04:22:58.710Z,100678.00
2018-07-31T04:25:28.029Z,100680.00
2018-07-31T04:27:57.369Z,100676.00
2018-07-31T04:30:26.695Z,100683.00
2018-07-31T04:32:56.052Z,100670.00
2018-07-31T04:35:25.292Z,100680.00
2018-07-31T04:37:54.689Z,100677.00
2018-07-31T04:40:24.035Z,100679.00
2018-07-31T04:42:53.367Z,100684.00
2018-07-31T04:45:23.273Z,100693.00
2018-07-31T04:47:52.587Z,100689.00
2018-07-31T04:50:21.922Z,100698.00
2018-07-31T04:52:51.189Z,100685.00
2018-07-31T04:55:20.520Z,100698.00
2018-07-31T04:57:49.993Z,100687.00
2018-07-31T05:00:19.393Z,100688.00
2018-07-31T05:02:48.671Z,100684.00
2018-07-31T05:05:17.939Z,100686.00
2018-07-31T05:07:47.257Z,100690.00
2018-07-31T05:10:16.624Z,100695.00
2018-07-31T05:12:45.910Z,100708.00
2018-07-31T05:15:15.222Z,100699.00
2018-07-31T05:17:44.491Z,100704.00
2018-07-31T05:20:13.790Z,100711.00
2018-07-31T05:22:43.024Z,100717.00
2018-07-31T05:25:12.410Z,100707.00
2018-07-31T05:27:41.690Z,100713.00
2018-07-31T05:30:11.561Z,100716.00
2018-07-31T05:32:40.893Z,100717.00
2018-07-31T05:35:10.658Z,100724.00
2018-07-31T05:37:40.038Z,100718.00
2018-07-31T05:40:10.087Z,100723.00
2018-07-31T05:42:39.391Z,100728.00
2018-07-31T05:45:08.698Z,100721.00
2018-07-31T05:47:38.149Z,100729.00
2018-07-31T05:50:08.287Z,100728.00
2018-07-31T05:52:37.582Z,100727.00
2018-07-31T05:55:07.115Z,100721.00
2018-07-31T05:57:36.607Z,100713.00
2018-07-31T06:00:08.051Z,100711.00
2018-07-31T06:02:37.760Z,100713.00
2018-07-31T06:05:07.120Z,100711.00
2018-07-31T06:07:36.474Z,100718.00
2018-07-31T06:10:07.459Z,100715.00
2018-07-31T06:12:36.774Z,100723.00
2018-07-31T06:15:07.622Z,100719.00
2018-07-31T06:17:36.880Z,100711.00
2018-07-31T06:20:12.486Z,100715.00
2018-07-31T06:22:41.875Z,100730.00
2018-07-31T06:25:11.569Z,100738.00
2018-07-31T06:27:40.864Z,100738.00
2018-07-31T06:30:12.896Z,100743.00
2018-07-31T06:32:42.672Z,100741.00
2018-07-31T06:35:11.971Z,100732.00
2018-07-31T06:37:41.312Z,100737.00
2018-07-31T06:40:10.603Z,100740.00
2018-07-31T06:42:39.952Z,100740.00
2018-07-31T06:45:09.286Z,100737.00
2018-07-31T06:47:38.696Z,100744.00
2018-07-31T06:50:08.061Z,100737.00
2018-07-31T06:52:42.697Z,100745.00
2018-07-31T06:55:11.964Z,100754.00
2018-07-31T06:57:41.291Z,100756.00
2018-07-31T07:00:10.547Z,100751.00
2018-07-31T07:02:39.857Z,100751.00
2018-07-31T07:05:09.174Z,100749.00
2018-07-31T07:07:38.527Z,100745.00
2018-07-31T07:10:08.072Z,100750.00
2018-07-31T07:12:37.347Z,100747.00
2018-07-31T07:15:06.735Z,100753.00
2018-07-31T07:17:36.037Z,100746.00
2018-07-31T07:20:05.566Z,100751.00
2018-07-31T07:22:34.897Z,100740.00
2018-07-31T07:25:04.251Z,100739.00
2018-07-31T07:27:33.592Z,100747.00
2018-07-31T07:30:03.062Z,100759.00
2018-07-31T07:32:32.294Z,100762.00
2018-07-31T07:35:01.664Z,100758.00
2018-07-31T07:37:31.107Z,100761.00
2018-07-31T07:40:00.489Z,100750.00
2018-07-31T07:42:29.843Z,100751.00
2018-07-31T07:44:59.297Z,100744.00
2018-07-31T07:47:28.600Z,100741.00
2018-07-31T07:49:57.968Z,100742.00
2018-07-31T07:52:27.264Z,100741.00
2018-07-31T07:54:56.545Z,100741.00
2018-07-31T07:57:25.830Z,100740.00
2018-07-31T07:59:55.134Z,100742.00
2018-07-31T08:02:24.411Z,100737.00
2018-07-31T08:04:53.710Z,100735.00
2018-07-31T08:07:23.079Z,100739.00
2018-07-31T08:09:52.806Z,100737.00
2018-07-31T08:12:22.132Z,100743.00
2018-07-31T08:14:52.491Z,100736.00
2018-07-31T08:17:21.812Z,100734.00
2018-07-31T08:19:51.091Z,100733.00
2018-07-31T08:22:20.402Z,100728.00
2018-07-31T08:24:49.642Z,100713.00
2018-07-31T08:27:19.023Z,100713.00
2018-07-31T08:29:48.329Z,100724.00
2018-07-31T08:32:17.554Z,100723.00
2018-07-31T08:34:46.883Z,100729.00
2018-07-31T08:37:16.114Z,100728.00
2018-07-31T08:39:45.411Z,100728.00
2018-07-31T08:42:14.647Z,100740.00
2018-07-31T08:44:43.945Z,100727.00
2018-07-31T08:47:13.164Z,100731.00
2018-07-31T08:49:42.484Z,100733.00
2018-07-31T08:52:11.743Z,100734.00
2018-07-31T08:54:41.299Z,100734.00
2018-07-31T08:57:10.586Z,100741.00
2018-07-31T08:59:39.843Z,100736.00
2018-07-31T09:02:09.083Z,100736.00
2018-07-31T09:04:38.367Z,100742.00
2018-07-31T09:07:07.647Z,100749.00
2018-07-31T09:09:36.912Z,100749.00
2018-07-31T09:12:06.167Z,100744.00
2018-07-31T09:14:35.444Z,100743.00
2018-07-31T09:17:04.793Z,100746.00
2018-07-31T09:19:34.074Z,100735.00
2018-07-31T09:22:03.412Z,100734.00
2018-07-31T09:24:32.836Z,100744.00
2018-07-31T09:27:02.010Z,100744.00
2018-07-31T09:29:31.331Z,100730.00
2018-07-31T09:32:00.694Z,100742.00
2018-07-31T09:34:30.080Z,100741.00
2018-07-31T09:36:59.435Z,100734.00
2018-07-31T09:39:28.806Z,100740.00
2018-07-31T09:41:58.141Z,100741.00
2018-07-31T09:44:27.412Z,100743.00
2018-07-31T09:46:56.739Z,100751.00
2018-07-31T09:49:26.011Z,100745.00
2018-07-31T09:51:55.471Z,100741.00
2018-07-31T09:54:24.821Z,100751.00
2018-07-31T09:56:54.121Z,100753.00
2018-07-31T09:59:23.411Z,100754.00
2018-07-31T10:01:52.718Z,100758.00
2018-07-31T10:04:21.987Z,100758.00
2018-07-31T10:06:51.315Z,100756.00
2018-07-31T10:09:20.559Z,100750.00
2018-07-31T10:11:50.222Z,100743.00
2018-07-31T10:14:19.510Z,100740.00
2018-07-31T10:16:48.912Z,100746.00
2018-07-31T10:19:18.242Z,100744.00
2018-07-31T10:21:47.540Z,100745.00
2018-07-31T10:24:16.952Z,100744.00
2018-07-31T10:26:46.211Z,100752.00
2018-07-31T10:29:15.657Z,100751.00
2018-07-31T10:31:45.002Z,100764.00
2018-07-31T10:34:14.302Z,100764.00
2018-07-31T10:36:43.572Z,100758.00
2018-07-31T10:39:12.812Z,100760.00
2018-07-31T10:41:42.214Z,100757.00
2018-07-31T10:44:11.534Z,100756.00
2018-07-31T10:46:40.776Z,100752.00
2018-07-31T10:49:10.016Z,100749.00
2018-07-31T10:51:39.283Z,100751.00
2018-07-31T10:54:08.509Z,100749.00
2018-07-31T10:56:37.842Z,100742.00
2018-07-31T10:59:07.139Z,100750.00
2018-07-31T11:01:36.499Z,100742.00
2018-07-31T11:04:07.020Z,100742.00
2018-07-31T11:06:36.433Z,100745.00
2018-07-31T11:09:09.634Z,100739.00
2018-07-31T11:11:39.022Z,100742.00
2018-07-31T11:14:09.006Z,100731.00
2018-07-31T11:16:38.349Z,100753.00
2018-07-31T11:19:07.670Z,100735.00
2018-07-31T11:21:36.976Z,100740.00
2018-07-31T11:24:06.323Z,100751.00
2018-07-31T11:26:35.573Z,100746.00
2018-07-31T11:29:04.931Z,100743.00
2018-07-31T11:31:34.183Z,100756.00
2018-07-31T11:34:03.826Z,100759.00
2018-07-31T11:36:33.175Z,100755.00
2018-07-31T11:39:02.531Z,100755.00
2018-07-31T11:41:31.791Z,100747.00
2018-07-31T11:44:01.191Z,100755.00
2018-07-31T11:46:30.510Z,100755.00
2018-07-31T11:48:59.790Z,100755.00
2018-07-31T11:51:29.272Z,100764.00
2018-07-31T11:53:58.608Z,100759.00
2018-07-31T11:56:27.918Z,100769.00
2018-07-31T11:58:57.255Z,100763.00
2018-07-31T12:01:26.601Z,100766.00
2018-07-31T12:03:55.982Z,100758.00
2018-07-31T12:06:25.364Z,100764.00
2018-07-31T12:08:54.705Z,100758.00
2018-07-31T12:11:24.082Z,100755.00
2018-07-31T12:13:53.523Z,100765.00
2018-07-31T12:16:22.892Z,100766.00
2018-07-31T12:18:52.557Z,100760.00
2018-07-31T12:21:21.925Z,100762.00
2018-07-31T12:23:51.166Z,100769.00
2018-07-31T12:26:20.398Z,100761.00
2018-07-31T12:28:49.734Z,100747.00
2018-07-31T12:31:18.973Z,100766.00
2018-07-31T12:33:48.341Z,100763.00
2018-07-31T12:36:17.800Z,100765.00
2018-07-31T12:38:47.090Z,100756.00
2018-07-31T12:41:16.523Z,100762.00
2018-07-31T12:43:45.934Z,100762.00
2018-07-31T12:46:15.210Z,100762.00
2018-07-31T12:48:44.562Z,100763.00
2018-07-31T12:51:13.803Z,100777.00
2018-07-31T12:53:43.153Z,100762.00
2018-07-31T12:56:12.476Z,100763.00
2018-07-31T12:58:41.810Z,100768.00
2018-07-31T13:01:11.063Z,100763.00
2018-07-31T13:03:40.330Z,100767.00
2018-07-31T13:06:09.587Z,100765.00
2018-07-31T13:08:42.171Z,100770.00
2018-07-31T13:11:12.863Z,100764.00
2018-07-31T13:13:42.226Z,100761.00
2018-07-31T13:16:11.603Z,100757.00
2018-07-31T13:18:40.905Z,100760.00
2018-07-31T13:21:10.244Z,100764.00
2018-07-31T13:23:39.849Z,100774.00
2018-07-31T13:26:09.195Z,100772.00
2018-07-31T13:28:38.475Z,100763.00
2018-07-31T13:31:08.324Z,100769.00
2018-07-31T13:33:40.906Z,100759.00
2018-07-31T13:36:10.357Z,100763.00
2018-07-31T13:38:39.696Z,100756.00
2018-07-31T13:41:09.040Z,100758.00
2018-07-31T13:43:38.350Z,100762.00
2018-07-31T13:46:07.680Z,100749.00
2018-07-31T13:48:36.930Z,100752.00
2018-07-31T13:51:06.213Z,100762.00
2018-07-31T13:53:35.537Z,100766.00
2018-07-31T13:56:04.836Z,100760.00
2018-07-31T13:58:34.143Z,100761.00
2018-07-31T14:01:03.356Z,100765.00
2018-07-31T14:03:32.599Z,100759.00
2018-07-31T14:06:01.920Z,100762.00
2018-07-31T14:08:31.578Z,100762.00
2018-07-31T14:11:00.831Z,100764.00
2018-07-31T14:13:30.070Z,100767.00
2018-07-31T14:15:59.312Z,100765.00
2018-07-31T14:18:28.605Z,100776.00
2018-07-31T14:20:57.815Z,100792.00
2018-07-31T14:23:27.122Z,100789.00
2018-07-31T14:25:56.411Z,100796.00
2018-07-31T14:28:25.722Z,100788.00
2018-07-31T14:30:55.089Z,100800.00
2018-07-31T14:33:24.427Z,100801.00
2018-07-31T14:35:53.816Z,100795.00
2018-07-31T14:38:23.152Z,100805.00
2018-07-31T14:40:52.453Z,100805.00
2018-07-31T14:43:21.867Z,100800.00
2018-07-31T14:45:52.033Z,100806.00
2018-07-31T14:48:21.336Z,100818.00
2018-07-31T14:50:50.647Z,100812.00
2018-07-31T14:53:20.351Z,100817.00
2018-07-31T14:55:49.641Z,100819.00
2018-07-31T14:58:18.992Z,100817.00
2018-07-31T15:00:48.682Z,100823.00
2018-07-31T15:03:17.957Z,100828.00
2018-07-31T15:05:47.235Z,100827.00
2018-07-31T15:08:16.520Z,100828.00
2018-07-31T15:10:45.836Z,100835.00
2018-07-31T15:13:15.066Z,100830.00
2018-07-31T15:15:44.347Z,100832.00
2018-07-31T15:18:13.615Z,100835.00
2018-07-31T15:20:42.905Z,100836.00
2018-07-31T15:23:12.147Z,100844.00
2018-07-31T15:25:41.476Z,100837.00
2018-07-31T15:28:12.841Z,100830.00
2018-07-31T15:30:42.126Z,100831.00
2018-07-31T15:33:11.370Z,100832.00
2018-07-31T15:35:40.662Z,100837.00
2018-07-31T15:38:09.884Z,100835.00
2018-07-31T15:40:39.531Z,100825.00
2018-07-31T15:43:08.879Z,100828.00
2018-07-31T15:45:38.144Z,100823.00
2018-07-31T15:48:07.484Z,100837.00
2018-07-31T15:50:36.759Z,100832.00
2018-07-31T15:53:06.303Z,100833.00
2018-07-31T15:55:35.549Z,100855.00
2018-07-31T15:58:04.835Z,100846.00
2018-07-31T16:00:34.203Z,100849.00
2018-07-31T16:03:03.465Z,100848.00
2018-07-31T16:05:32.711Z,100847.00
2018-07-31T16:08:02.003Z,100843.00
2018-07-31T16:10:31.616Z,100844.00
2018-07-31T16:13:00.932Z,100844.00
2018-07-31T16:15:30.211Z,100851.00
2018-07-31T16:17:59.476Z,100844.00
2018-07-31T16:20:28.719Z,100847.00
2018-07-31T16:22:58.001Z,100849.00
2018-07-31T16:25:27.298Z,100844.00
2018-07-31T16:27:56.680Z,100845.00
2018-07-31T16:30:25.899Z,100854.00
2018-07-31T16:32:55.147Z,100853.00
2018-07-31T16:35:24.439Z,100851.00
2018-07-31T16:37:53.744Z,100853.00
2018-07-31T16:40:23.023Z,100850.00
2018-07-31T16:42:52.320Z,100871.00
2018-07-31T16:45:21.571Z,100866.00
2018-07-31T16:47:50.801Z,100866.00
2018-07-31T16:50:20.140Z,100868.00
2018-07-31T16:52:49.375Z,100872.00
2018-07-31T16:55:18.701Z,100865.00
2018-07-31T16:57:48.064Z,100878.00
2018-07-31T17:00:17.326Z,100892.00
2018-07-31T17:02:46.632Z,100888.00
2018-07-31T17:05:15.903Z,100887.00
2018-07-31T17:07:45.269Z,100899.00
2018-07-31T17:10:14.982Z,100899.00
2018-07-31T17:12:44.286Z,100903.00
2018-07-31T17:15:13.598Z,100904.00
2018-07-31T17:17:42.844Z,100911.00
2018-07-31T17:20:12.143Z,100911.00
2018-07-31T17:22:41.452Z,100911.00
2018-07-31T17:25:10.862Z,100920.00
2018-07-31T17:27:40.181Z,100933.00
2018-07-31T17:30:09.509Z,100925.00
2018-07-31T17:32:38.778Z,100925.00
2018-07-31T17:35:08.136Z,100928.00
2018-07-31T17:37:37.493Z,100931.00
2018-07-31T17:40:06.929Z,100934.00
2018-07-31T17:42:36.147Z,100944.00
2018-07-31T17:45:06.180Z,100947.00
2018-07-31T17:47:35.459Z,100944.00
2018-07-31T17:50:04.865Z,100951.00
2018-07-31T17:52:34.285Z,100948.00
2018-07-31T17:55:03.604Z,100954.00
2018-07-31T17:57:32.935Z,100955.00
2018-07-31T18:00:02.137Z,100964.00
2018-07-31T18:02:31.579Z,100969.00
2018-07-31T18:05:00.954Z,100964.00
2018-07-31T18:07:30.314Z,100966.00
2018-07-31T18:09:59.649Z,100970.00
2018-07-31T18:12:28.885Z,100972.00
2018-07-31T18:14:58.192Z,100983.00
2018-07-31T18:17:27.652Z,100987.00
2018-07-31T18:19:56.924Z,100989.00
2018-07-31T18:22:26.164Z,100994.00
2018-07-31T18:24:55.533Z,100992.00
2018-07-31T18:27:25.321Z,100992.00
2018-07-31T18:29:54.837Z,101012.00
2018-07-31T18:32:24.171Z,101004.00
2018-07-31T18:34:53.501Z,101008.00
2018-07-31T18:37:22.737Z,101012.00
2018-07-31T18:39:52.200Z,101005.00
2018-07-31T18:42:21.527Z,101009.00
2018-07-31T18:44:50.822Z,101009.00
2018-07-31T18:47:20.143Z,101018.00
2018-07-31T18:49:49.657Z,101015.00
2018-07-31T18:52:18.967Z,101024.00
2018-07-31T18:54:48.267Z,101034.00
2018-07-31T18:57:17.557Z,101034.00
2018-07-31T18:59:46.855Z,101035.00
2018-07-31T19:02:16.120Z,101041.00
2018-07-31T19:04:45.354Z,101045.00
2018-07-31T19:07:15.669Z,101055.00
2018-07-31T19:09:45.009Z,101063.00
2018-07-31T19:12:14.230Z,101068.00
2018-07-31T19:14:43.492Z,101066.00
2018-07-31T19:17:12.776Z,101071.00
2018-07-31T19:19:42.086Z,101066.00
2018-07-31T19:22:11.358Z,101074.00
2018-07-31T19:24:40.695Z,101068.00
2018-07-31T19:27:10.020Z,101076.00
2018-07-31T19:29:39.303Z,101086.00
2018-07-31T19:32:08.643Z,101085.00
2018-07-31T19:34:37.921Z,101079.00
2018-07-31T19:37:07.203Z,101095.00
2018-07-31T19:39:36.472Z,101099.00
2018-07-31T19:42:05.776Z,101093.00
2018-07-31T19:44:34.963Z,101105.00
2018-07-31T19:47:04.261Z,101107.00
2018-07-31T19:49:33.470Z,101107.00
2018-07-31T19:52:02.840Z,101106.00
2018-07-31T19:54:32.097Z,101114.00
2018-07-31T19:57:01.323Z,101114.00
2018-07-31T19:59:30.667Z,101119.00
2018-07-31T20:01:59.963Z,101121.00
2018-07-31T20:04:29.274Z,101118.00
2018-07-31T20:06:58.594Z,101127.00
2018-07-31T20:09:28.977Z,101123.00
2018-07-31T20:11:58.632Z,101127.00
2018-07-31T20:14:27.966Z,101133.00
2018-07-31T20:16:57.204Z,101137.00
2018-07-31T20:19:26.520Z,101149.00
2018-07-31T20:21:55.850Z,101149.00
2018-07-31T20:24:25.099Z,101140.00
2018-07-31T20:26:54.695Z,101136.00
2018-07-31T20:29:23.974Z,101140.00
2018-07-31T20:31:53.246Z,101154.00
2018-07-31T20:34:22.554Z,101155.00
2018-07-31T20:36:51.867Z,101166.00
2018-07-31T20:39:21.228Z,101158.00
2018-07-31T20:41:50.516Z,101161.00
2018-07-31T20:44:19.842Z,101160.00
2018-07-31T20:46:49.148Z,101155.00
2018-07-31T20:49:18.482Z,101161.00
2018-07-31T20:51:47.766Z,101160.00
2018-07-31T20:54:17.089Z,101166.00
2018-07-31T20:56:46.380Z,101165.00
2018-07-31T20:59:15.719Z,101173.00
2018-07-31T21:01:45.043Z,101168.00
2018-07-31T21:04:14.466Z,101168.00
2018-07-31T21:06:43.815Z,101165.00
2018-07-31T21:09:17.244Z,101168.00
2018-07-31T21:11:46.490Z,101167.00
2018-07-31T21:14:15.911Z,101170.00
2018-07-31T21:16:45.226Z,101173.00
2018-07-31T21:19:14.579Z,101170.00
2018-07-31T21:21:43.978Z,101176.00
2018-07-31T21:24:13.260Z,101186.00
2018-07-31T21:26:42.575Z,101191.00
2018-07-31T21:29:11.823Z,101187.00
2018-07-31T21:31:41.103Z,101194.00
2018-07-31T21:34:10.364Z,101201.00
2018-07-31T21:36:39.679Z,101196.00
2018-07-31T21:39:11.308Z,101192.00
2018-07-31T21:41:41.260Z,101198.00
2018-07-31T21:44:10.947Z,101205.00
2018-07-31T21:46:40.342Z,101202.00
2018-07-31T21:49:09.563Z,101208.00
2018-07-31T21:51:38.984Z,101219.00
2018-07-31T21:54:08.415Z,101220.00
2018-07-31T21:56:37.799Z,101226.00
2018-07-31T21:59:07.099Z,101225.00
2018-07-31T22:01:36.428Z,101222.00
2018-07-31T22:04:05.665Z,101229.00
2018-07-31T22:06:34.971Z,101227.00
2018-07-31T22:09:06.585Z,101228.00
2018-07-31T22:11:35.804Z,101231.00
2018-07-31T22:14:05.116Z,101233.00
2018-07-31T22:16:34.388Z,101236.00
2018-07-31T22:19:03.776Z,101228.00
2018-07-31T22:21:33.012Z,101235.00
2018-07-31T22:24:02.293Z,101245.00
2018-07-31T22:26:31.551Z,101242.00
2018-07-31T22:29:00.833Z,101246.00
2018-07-31T22:31:30.107Z,101235.00
2018-07-31T22:33:59.324Z,101240.00
2018-07-31T22:36:29.040Z,101241.00
2018-07-31T22:38:58.284Z,101240.00
2018-07-31T22:41:27.545Z,101235.00
2018-07-31T22:43:56.809Z,101247.00
2018-07-31T22:46:26.055Z,101238.00
2018-07-31T22:48:55.316Z,101244.00
2018-07-31T22:51:24.912Z,101244.00
2018-07-31T22:53:54.150Z,101254.00
2018-07-31T22:56:23.367Z,101246.00
2018-07-31T22:58:53.035Z,101250.00
2018-07-31T23:01:22.284Z,101259.00
2018-07-31T23:03:51.494Z,101254.00
2018-07-31T23:06:20.750Z,101253.00
2018-07-31T23:08:50.131Z,101253.00
2018-07-31T23:11:19.403Z,101261.00
2018-07-31T23:13:48.735Z,101263.00
2018-07-31T23:16:18.053Z,101261.00
2018-07-31T23:18:47.299Z,101269.00
2018-07-31T23:21:17.086Z,101263.00
2018-07-31T23:23:46.332Z,101269.00
2018-07-31T23:26:15.540Z,101260.00
2018-07-31T23:28:44.795Z,101258.00
2018-07-31T23:31:14.055Z,101261.00
2018-07-31T23:33:43.268Z,101261.00
2018-07-31T23:36:12.497Z,101260.00
2018-07-31T23:38:41.731Z,101260.00
2018-07-31T23:41:11.027Z,101263.00
2018-07-31T23:43:40.263Z,101262.00
2018-07-31T23:46:10.030Z,101271.00
2018-07-31T23:48:39.304Z,101260.00
2018-07-31T23:51:08.533Z,101260.00
2018-07-31T23:53:37.911Z,101269.00
2018-07-31T23:56:07.203Z,101259.00
2018-07-31T23:58:36.447Z,101258.00
